sensor_id;sensor_type;location;lat;lon;timestamp;P1;durP1;ratioP1;P2;durP2;ratioP2
74469;SDS011;62918;55.706;37.816;2023-04-03T00:00:29;15.05;;;7.35;;
74469;SDS011;62918;55.706;37.816;2023-04-03T00:01:00;12.50;;;7.03;;
74469;SDS011;62918;55.706;37.816;2023-04-03T00:01:31;19.83;;;7.80;;
74469;SDS011;62918;55.706;37.816;2023-04-03T00:02:10;14.57;;;6.78;;
74469;SDS011;62918;55.706;37.816;2023-04-03T00:02:41;15.25;;;7.03;;
74469;SDS011;62918;55.706;37.816;2023-04-03T00:03:11;12.60;;;6.60;;
74469;SDS011;62918;55.706;37.816;2023-04-03T00:03:42;14.40;;;6.95;;
74469;SDS011;62918;55.706;37.816;2023-04-03T00:04:13;14.50;;;7.25;;
74469;SDS011;62918;55.706;37.816;2023-04-03T00:04:43;13.88;;;7.30;;
74469;SDS011;62918;55.706;37.816;2023-04-03T00:05:14;12.43;;;6.75;;
74469;SDS011;62918;55.706;37.816;2023-04-03T00:05:45;14.27;;;6.90;;
74469;SDS011;62918;55.706;37.816;2023-04-03T00:06:16;13.73;;;6.80;;
74469;SDS011;62918;55.706;37.816;2023-04-03T00:06:50;13.25;;;7.43;;
74469;SDS011;62918;55.706;37.816;2023-04-03T00:07:21;12.73;;;6.85;;
74469;SDS011;62918;55.706;37.816;2023-04-03T00:07:52;12.05;;;7.20;;
74469;SDS011;62918;55.706;37.816;2023-04-03T00:08:22;14.65;;;6.90;;
74469;SDS011;62918;55.706;37.816;2023-04-03T00:08:56;12.07;;;7.28;;
74469;SDS011;62918;55.706;37.816;2023-04-03T00:09:26;15.10;;;6.93;;
74469;SDS011;62918;55.706;37.816;2023-04-03T00:09:57;16.77;;;7.43;;
74469;SDS011;62918;55.706;37.816;2023-04-03T00:10:59;12.80;;;6.63;;
74469;SDS011;62918;55.706;37.816;2023-04-03T00:11:29;15.80;;;6.72;;
74469;SDS011;62918;55.706;37.816;2023-04-03T00:12:00;14.30;;;6.85;;
74469;SDS011;62918;55.706;37.816;2023-04-03T00:12:31;16.63;;;7.57;;
74469;SDS011;62918;55.706;37.816;2023-04-03T00:13:02;12.07;;;6.85;;
74469;SDS011;62918;55.706;37.816;2023-04-03T00:13:34;12.55;;;7.15;;
74469;SDS011;62918;55.706;37.816;2023-04-03T00:14:04;11.50;;;7.15;;
74469;SDS011;62918;55.706;37.816;2023-04-03T00:14:35;13.18;;;7.40;;
74469;SDS011;62918;55.706;37.816;2023-04-03T00:15:08;13.77;;;7.05;;
74469;SDS011;62918;55.706;37.816;2023-04-03T00:15:40;13.90;;;7.30;;
74469;SDS011;62918;55.706;37.816;2023-04-03T00:16:11;13.50;;;7.05;;
74469;SDS011;62918;55.706;37.816;2023-04-03T00:16:48;15.10;;;7.00;;
74469;SDS011;62918;55.706;37.816;2023-04-03T00:17:19;15.65;;;7.50;;
74469;SDS011;62918;55.706;37.816;2023-04-03T00:17:52;11.23;;;6.82;;
74469;SDS011;62918;55.706;37.816;2023-04-03T00:18:23;18.30;;;7.53;;
74469;SDS011;62918;55.706;37.816;2023-04-03T00:18:53;16.08;;;6.90;;
74469;SDS011;62918;55.706;37.816;2023-04-03T00:19:24;12.73;;;7.68;;
74469;SDS011;62918;55.706;37.816;2023-04-03T00:19:55;17.02;;;7.20;;
74469;SDS011;62918;55.706;37.816;2023-04-03T00:20:25;14.93;;;7.35;;
74469;SDS011;62918;55.706;37.816;2023-04-03T00:20:57;15.00;;;7.47;;
74469;SDS011;62918;55.706;37.816;2023-04-03T00:21:28;12.00;;;7.35;;
74469;SDS011;62918;55.706;37.816;2023-04-03T00:21:58;16.40;;;7.43;;
74469;SDS011;62918;55.706;37.816;2023-04-03T00:22:31;15.70;;;7.68;;
74469;SDS011;62918;55.706;37.816;2023-04-03T00:23:04;13.05;;;6.97;;
74469;SDS011;62918;55.706;37.816;2023-04-03T00:23:38;21.48;;;7.50;;
74469;SDS011;62918;55.706;37.816;2023-04-03T00:24:18;12.63;;;7.10;;
74469;SDS011;62918;55.706;37.816;2023-04-03T00:24:49;16.58;;;7.43;;
74469;SDS011;62918;55.706;37.816;2023-04-03T00:25:20;18.80;;;7.30;;
74469;SDS011;62918;55.706;37.816;2023-04-03T00:25:51;16.13;;;7.32;;
74469;SDS011;62918;55.706;37.816;2023-04-03T00:26:22;15.45;;;7.25;;
74469;SDS011;62918;55.706;37.816;2023-04-03T00:26:53;11.27;;;7.57;;
74469;SDS011;62918;55.706;37.816;2023-04-03T00:27:26;16.27;;;7.53;;
74469;SDS011;62918;55.706;37.816;2023-04-03T00:27:57;15.57;;;8.23;;
74469;SDS011;62918;55.706;37.816;2023-04-03T00:28:28;12.27;;;7.45;;
74469;SDS011;62918;55.706;37.816;2023-04-03T00:28:58;15.20;;;7.05;;
74469;SDS011;62918;55.706;37.816;2023-04-03T00:29:29;17.55;;;8.10;;
74469;SDS011;62918;55.706;37.816;2023-04-03T00:30:00;10.88;;;7.28;;
74469;SDS011;62918;55.706;37.816;2023-04-03T00:30:31;12.30;;;7.57;;
74469;SDS011;62918;55.706;37.816;2023-04-03T00:31:05;17.08;;;7.63;;
74469;SDS011;62918;55.706;37.816;2023-04-03T00:31:39;12.68;;;7.35;;
74469;SDS011;62918;55.706;37.816;2023-04-03T00:32:10;13.38;;;7.55;;
74469;SDS011;62918;55.706;37.816;2023-04-03T00:32:44;13.45;;;7.85;;
74469;SDS011;62918;55.706;37.816;2023-04-03T00:33:15;15.50;;;7.18;;
74469;SDS011;62918;55.706;37.816;2023-04-03T00:33:46;17.20;;;7.38;;
74469;SDS011;62918;55.706;37.816;2023-04-03T00:34:19;14.25;;;7.03;;
74469;SDS011;62918;55.706;37.816;2023-04-03T00:34:50;14.80;;;7.40;;
74469;SDS011;62918;55.706;37.816;2023-04-03T00:35:21;15.68;;;7.35;;
74469;SDS011;62918;55.706;37.816;2023-04-03T00:35:52;13.32;;;7.47;;
74469;SDS011;62918;55.706;37.816;2023-04-03T00:36:23;14.02;;;7.25;;
74469;SDS011;62918;55.706;37.816;2023-04-03T00:36:54;15.93;;;8.55;;
74469;SDS011;62918;55.706;37.816;2023-04-03T00:37:25;14.68;;;7.20;;
74469;SDS011;62918;55.706;37.816;2023-04-03T00:37:55;15.52;;;8.02;;
74469;SDS011;62918;55.706;37.816;2023-04-03T00:38:26;15.13;;;8.05;;
74469;SDS011;62918;55.706;37.816;2023-04-03T00:38:57;13.32;;;7.85;;
74469;SDS011;62918;55.706;37.816;2023-04-03T00:39:28;13.20;;;8.18;;
74469;SDS011;62918;55.706;37.816;2023-04-03T00:39:58;14.25;;;8.13;;
74469;SDS011;62918;55.706;37.816;2023-04-03T00:40:32;13.73;;;8.25;;
74469;SDS011;62918;55.706;37.816;2023-04-03T00:41:07;13.43;;;8.00;;
74469;SDS011;62918;55.706;37.816;2023-04-03T00:41:40;14.77;;;8.35;;
74469;SDS011;62918;55.706;37.816;2023-04-03T00:42:11;15.00;;;8.13;;
74469;SDS011;62918;55.706;37.816;2023-04-03T00:42:43;16.27;;;8.00;;
74469;SDS011;62918;55.706;37.816;2023-04-03T00:43:19;14.38;;;7.97;;
74469;SDS011;62918;55.706;37.816;2023-04-03T00:43:54;12.95;;;7.38;;
74469;SDS011;62918;55.706;37.816;2023-04-03T00:45:36;12.00;;;7.45;;
74469;SDS011;62918;55.706;37.816;2023-04-03T00:46:08;13.50;;;7.03;;
74469;SDS011;62918;55.706;37.816;2023-04-03T00:46:41;16.50;;;9.02;;
74469;SDS011;62918;55.706;37.816;2023-04-03T00:47:12;15.20;;;8.50;;
74469;SDS011;62918;55.706;37.816;2023-04-03T00:47:45;13.45;;;8.40;;
74469;SDS011;62918;55.706;37.816;2023-04-03T00:48:24;17.00;;;8.10;;
74469;SDS011;62918;55.706;37.816;2023-04-03T00:48:59;15.98;;;8.13;;
74469;SDS011;62918;55.706;37.816;2023-04-03T00:49:30;13.60;;;8.00;;
74469;SDS011;62918;55.706;37.816;2023-04-03T00:50:00;15.55;;;7.55;;
74469;SDS011;62918;55.706;37.816;2023-04-03T00:50:32;15.13;;;7.88;;
74469;SDS011;62918;55.706;37.816;2023-04-03T00:51:08;13.05;;;7.13;;
74469;SDS011;62918;55.706;37.816;2023-04-03T00:51:42;15.32;;;8.15;;
74469;SDS011;62918;55.706;37.816;2023-04-03T00:52:15;15.73;;;7.97;;
74469;SDS011;62918;55.706;37.816;2023-04-03T00:52:47;16.00;;;7.93;;
74469;SDS011;62918;55.706;37.816;2023-04-03T00:53:21;13.35;;;8.10;;
74469;SDS011;62918;55.706;37.816;2023-04-03T00:53:56;14.05;;;7.78;;
74469;SDS011;62918;55.706;37.816;2023-04-03T00:54:31;14.98;;;8.40;;
74469;SDS011;62918;55.706;37.816;2023-04-03T00:55:02;16.10;;;9.15;;
74469;SDS011;62918;55.706;37.816;2023-04-03T00:55:35;17.80;;;8.68;;
74469;SDS011;62918;55.706;37.816;2023-04-03T00:56:08;17.98;;;8.13;;
74469;SDS011;62918;55.706;37.816;2023-04-03T00:56:43;14.77;;;8.38;;
74469;SDS011;62918;55.706;37.816;2023-04-03T00:57:14;18.17;;;8.75;;
74469;SDS011;62918;55.706;37.816;2023-04-03T00:57:46;14.75;;;8.75;;
74469;SDS011;62918;55.706;37.816;2023-04-03T00:58:17;18.10;;;9.27;;
74469;SDS011;62918;55.706;37.816;2023-04-03T00:58:53;14.30;;;8.52;;
74469;SDS011;62918;55.706;37.816;2023-04-03T00:59:30;15.32;;;8.10;;
74469;SDS011;62918;55.706;37.816;2023-04-03T01:00:05;18.83;;;9.13;;
74469;SDS011;62918;55.706;37.816;2023-04-03T01:00:40;14.30;;;8.52;;
74469;SDS011;62918;55.706;37.816;2023-04-03T01:01:17;17.70;;;9.27;;
74469;SDS011;62918;55.706;37.816;2023-04-03T01:01:52;17.23;;;8.68;;
74469;SDS011;62918;55.706;37.816;2023-04-03T01:02:27;16.90;;;8.30;;
74469;SDS011;62918;55.706;37.816;2023-04-03T01:02:58;18.52;;;8.85;;
74469;SDS011;62918;55.706;37.816;2023-04-03T01:03:29;19.23;;;8.90;;
74469;SDS011;62918;55.706;37.816;2023-04-03T01:04:01;17.60;;;9.07;;
74469;SDS011;62918;55.706;37.816;2023-04-03T01:04:34;15.57;;;8.90;;
74469;SDS011;62918;55.706;37.816;2023-04-03T01:05:12;16.70;;;8.05;;
74469;SDS011;62918;55.706;37.816;2023-04-03T01:05:44;14.75;;;8.10;;
74469;SDS011;62918;55.706;37.816;2023-04-03T01:06:16;19.08;;;8.57;;
74469;SDS011;62918;55.706;37.816;2023-04-03T01:06:50;22.95;;;8.60;;
74469;SDS011;62918;55.706;37.816;2023-04-03T01:07:23;14.45;;;8.85;;
74469;SDS011;62918;55.706;37.816;2023-04-03T01:07:57;20.52;;;9.18;;
74469;SDS011;62918;55.706;37.816;2023-04-03T01:08:29;18.40;;;8.90;;
74469;SDS011;62918;55.706;37.816;2023-04-03T01:09:00;15.77;;;9.38;;
74469;SDS011;62918;55.706;37.816;2023-04-03T01:09:31;15.98;;;9.02;;
74469;SDS011;62918;55.706;37.816;2023-04-03T01:10:07;17.50;;;8.85;;
74469;SDS011;62918;55.706;37.816;2023-04-03T01:10:40;22.00;;;9.02;;
74469;SDS011;62918;55.706;37.816;2023-04-03T01:11:11;22.73;;;9.65;;
74469;SDS011;62918;55.706;37.816;2023-04-03T01:11:41;20.20;;;8.82;;
74469;SDS011;62918;55.706;37.816;2023-04-03T01:12:49;18.58;;;8.75;;
74469;SDS011;62918;55.706;37.816;2023-04-03T01:13:25;17.38;;;8.75;;
74469;SDS011;62918;55.706;37.816;2023-04-03T01:13:59;20.48;;;9.40;;
74469;SDS011;62918;55.706;37.816;2023-04-03T01:14:31;20.67;;;9.00;;
74469;SDS011;62918;55.706;37.816;2023-04-03T01:15:04;20.13;;;9.30;;
74469;SDS011;62918;55.706;37.816;2023-04-03T01:15:38;17.00;;;9.00;;
74469;SDS011;62918;55.706;37.816;2023-04-03T01:16:08;19.70;;;9.38;;
74469;SDS011;62918;55.706;37.816;2023-04-03T01:16:39;20.63;;;9.00;;
74469;SDS011;62918;55.706;37.816;2023-04-03T01:17:58;20.00;;;8.82;;
74469;SDS011;62918;55.706;37.816;2023-04-03T01:18:31;18.42;;;8.60;;
74469;SDS011;62918;55.706;37.816;2023-04-03T01:19:03;17.08;;;9.02;;
74469;SDS011;62918;55.706;37.816;2023-04-03T01:19:38;16.80;;;9.18;;
74469;SDS011;62918;55.706;37.816;2023-04-03T01:21:10;15.32;;;8.27;;
74469;SDS011;62918;55.706;37.816;2023-04-03T01:21:56;20.85;;;8.65;;
74469;SDS011;62918;55.706;37.816;2023-04-03T01:24:37;17.02;;;8.48;;
74469;SDS011;62918;55.706;37.816;2023-04-03T01:25:11;20.85;;;8.88;;
74469;SDS011;62918;55.706;37.816;2023-04-03T01:25:46;14.32;;;8.88;;
74469;SDS011;62918;55.706;37.816;2023-04-03T01:26:21;20.42;;;9.13;;
74469;SDS011;62918;55.706;37.816;2023-04-03T01:26:52;16.88;;;8.82;;
74469;SDS011;62918;55.706;37.816;2023-04-03T01:27:22;19.15;;;9.13;;
74469;SDS011;62918;55.706;37.816;2023-04-03T01:27:53;17.33;;;8.55;;
74469;SDS011;62918;55.706;37.816;2023-04-03T01:28:28;14.88;;;9.02;;
74469;SDS011;62918;55.706;37.816;2023-04-03T01:29:01;13.50;;;8.77;;
74469;SDS011;62918;55.706;37.816;2023-04-03T01:29:32;15.25;;;9.30;;
74469;SDS011;62918;55.706;37.816;2023-04-03T01:30:03;15.57;;;9.02;;
74469;SDS011;62918;55.706;37.816;2023-04-03T01:30:35;15.40;;;8.38;;
74469;SDS011;62918;55.706;37.816;2023-04-03T01:32:05;22.05;;;9.38;;
74469;SDS011;62918;55.706;37.816;2023-04-03T01:32:36;15.68;;;9.00;;
74469;SDS011;62918;55.706;37.816;2023-04-03T01:33:07;14.65;;;8.60;;
74469;SDS011;62918;55.706;37.816;2023-04-03T01:33:38;17.42;;;8.80;;
74469;SDS011;62918;55.706;37.816;2023-04-03T01:34:08;15.20;;;9.38;;
74469;SDS011;62918;55.706;37.816;2023-04-03T01:34:39;16.75;;;9.77;;
74469;SDS011;62918;55.706;37.816;2023-04-03T01:35:10;15.55;;;8.93;;
74469;SDS011;62918;55.706;37.816;2023-04-03T01:35:40;18.45;;;9.43;;
74469;SDS011;62918;55.706;37.816;2023-04-03T01:36:14;17.45;;;8.93;;
74469;SDS011;62918;55.706;37.816;2023-04-03T01:36:49;17.17;;;8.75;;
74469;SDS011;62918;55.706;37.816;2023-04-03T01:37:20;15.07;;;8.77;;
74469;SDS011;62918;55.706;37.816;2023-04-03T01:37:53;19.13;;;9.27;;
74469;SDS011;62918;55.706;37.816;2023-04-03T01:38:24;21.35;;;9.88;;
74469;SDS011;62918;55.706;37.816;2023-04-03T01:38:56;16.13;;;9.23;;
74469;SDS011;62918;55.706;37.816;2023-04-03T01:39:29;16.23;;;8.95;;
74469;SDS011;62918;55.706;37.816;2023-04-03T01:39:59;15.18;;;8.45;;
74469;SDS011;62918;55.706;37.816;2023-04-03T01:40:30;18.35;;;9.48;;
74469;SDS011;62918;55.706;37.816;2023-04-03T01:41:01;16.27;;;9.27;;
74469;SDS011;62918;55.706;37.816;2023-04-03T01:41:31;18.77;;;9.05;;
74469;SDS011;62918;55.706;37.816;2023-04-03T01:42:02;17.50;;;9.35;;
74469;SDS011;62918;55.706;37.816;2023-04-03T01:42:34;17.00;;;9.32;;
74469;SDS011;62918;55.706;37.816;2023-04-03T01:43:05;17.98;;;9.57;;
74469;SDS011;62918;55.706;37.816;2023-04-03T01:43:35;18.67;;;9.48;;
74469;SDS011;62918;55.706;37.816;2023-04-03T01:44:06;17.52;;;9.20;;
74469;SDS011;62918;55.706;37.816;2023-04-03T01:44:36;15.52;;;8.75;;
74469;SDS011;62918;55.706;37.816;2023-04-03T01:45:07;14.88;;;8.95;;
74469;SDS011;62918;55.706;37.816;2023-04-03T01:45:38;15.57;;;9.02;;
74469;SDS011;62918;55.706;37.816;2023-04-03T01:46:09;15.43;;;8.93;;
74469;SDS011;62918;55.706;37.816;2023-04-03T01:46:40;15.63;;;9.00;;
74469;SDS011;62918;55.706;37.816;2023-04-03T01:47:12;15.68;;;8.80;;
74469;SDS011;62918;55.706;37.816;2023-04-03T01:47:42;16.30;;;8.93;;
74469;SDS011;62918;55.706;37.816;2023-04-03T01:48:13;15.48;;;9.23;;
74469;SDS011;62918;55.706;37.816;2023-04-03T01:48:44;18.83;;;9.25;;
74469;SDS011;62918;55.706;37.816;2023-04-03T01:49:14;17.48;;;9.32;;
74469;SDS011;62918;55.706;37.816;2023-04-03T01:49:45;13.43;;;8.68;;
74469;SDS011;62918;55.706;37.816;2023-04-03T01:50:15;21.48;;;9.20;;
74469;SDS011;62918;55.706;37.816;2023-04-03T01:50:46;17.38;;;9.93;;
74469;SDS011;62918;55.706;37.816;2023-04-03T01:51:17;19.45;;;9.55;;
74469;SDS011;62918;55.706;37.816;2023-04-03T01:51:47;14.45;;;9.40;;
74469;SDS011;62918;55.706;37.816;2023-04-03T01:52:18;17.88;;;8.82;;
74469;SDS011;62918;55.706;37.816;2023-04-03T01:52:49;16.13;;;9.20;;
74469;SDS011;62918;55.706;37.816;2023-04-03T01:53:19;18.30;;;9.75;;
74469;SDS011;62918;55.706;37.816;2023-04-03T01:53:50;12.75;;;9.30;;
74469;SDS011;62918;55.706;37.816;2023-04-03T01:54:21;14.25;;;9.75;;
74469;SDS011;62918;55.706;37.816;2023-04-03T01:54:52;22.73;;;9.90;;
74469;SDS011;62918;55.706;37.816;2023-04-03T01:55:22;16.55;;;9.00;;
74469;SDS011;62918;55.706;37.816;2023-04-03T01:55:53;15.65;;;9.10;;
74469;SDS011;62918;55.706;37.816;2023-04-03T01:56:23;17.80;;;9.48;;
74469;SDS011;62918;55.706;37.816;2023-04-03T01:56:55;16.48;;;9.48;;
74469;SDS011;62918;55.706;37.816;2023-04-03T01:57:25;14.02;;;9.50;;
74469;SDS011;62918;55.706;37.816;2023-04-03T01:57:56;17.23;;;9.30;;
74469;SDS011;62918;55.706;37.816;2023-04-03T01:58:26;15.57;;;8.85;;
74469;SDS011;62918;55.706;37.816;2023-04-03T01:58:57;18.33;;;9.60;;
74469;SDS011;62918;55.706;37.816;2023-04-03T01:59:28;14.60;;;8.93;;
74469;SDS011;62918;55.706;37.816;2023-04-03T01:59:58;15.75;;;9.25;;
74469;SDS011;62918;55.706;37.816;2023-04-03T02:00:29;14.32;;;8.55;;
74469;SDS011;62918;55.706;37.816;2023-04-03T02:01:00;18.30;;;9.23;;
74469;SDS011;62918;55.706;37.816;2023-04-03T02:01:31;13.57;;;9.05;;
74469;SDS011;62918;55.706;37.816;2023-04-03T02:02:02;20.98;;;9.40;;
74469;SDS011;62918;55.706;37.816;2023-04-03T02:02:33;17.73;;;9.10;;
74469;SDS011;62918;55.706;37.816;2023-04-03T02:03:04;17.60;;;10.13;;
74469;SDS011;62918;55.706;37.816;2023-04-03T02:03:34;14.90;;;9.13;;
74469;SDS011;62918;55.706;37.816;2023-04-03T02:04:05;14.90;;;8.52;;
74469;SDS011;62918;55.706;37.816;2023-04-03T02:04:36;17.27;;;9.52;;
74469;SDS011;62918;55.706;37.816;2023-04-03T02:05:07;13.65;;;9.38;;
74469;SDS011;62918;55.706;37.816;2023-04-03T02:05:38;17.10;;;9.52;;
74469;SDS011;62918;55.706;37.816;2023-04-03T02:06:08;16.55;;;9.48;;
74469;SDS011;62918;55.706;37.816;2023-04-03T02:06:39;21.15;;;9.13;;
74469;SDS011;62918;55.706;37.816;2023-04-03T02:07:09;16.77;;;9.27;;
74469;SDS011;62918;55.706;37.816;2023-04-03T02:07:40;20.55;;;9.75;;
74469;SDS011;62918;55.706;37.816;2023-04-03T02:08:10;15.63;;;8.98;;
74469;SDS011;62918;55.706;37.816;2023-04-03T02:08:41;17.10;;;9.75;;
74469;SDS011;62918;55.706;37.816;2023-04-03T02:09:12;14.70;;;9.52;;
74469;SDS011;62918;55.706;37.816;2023-04-03T02:09:42;19.38;;;10.40;;
74469;SDS011;62918;55.706;37.816;2023-04-03T02:10:13;17.33;;;9.63;;
74469;SDS011;62918;55.706;37.816;2023-04-03T02:10:46;14.13;;;9.20;;
74469;SDS011;62918;55.706;37.816;2023-04-03T02:11:17;15.02;;;9.13;;
74469;SDS011;62918;55.706;37.816;2023-04-03T02:11:48;18.05;;;9.02;;
74469;SDS011;62918;55.706;37.816;2023-04-03T02:12:19;17.17;;;9.25;;
74469;SDS011;62918;55.706;37.816;2023-04-03T02:12:49;18.55;;;9.65;;
74469;SDS011;62918;55.706;37.816;2023-04-03T02:13:20;13.95;;;9.13;;
74469;SDS011;62918;55.706;37.816;2023-04-03T02:13:51;14.07;;;9.88;;
74469;SDS011;62918;55.706;37.816;2023-04-03T02:14:21;18.80;;;9.15;;
74469;SDS011;62918;55.706;37.816;2023-04-03T02:14:53;16.17;;;9.60;;
74469;SDS011;62918;55.706;37.816;2023-04-03T02:15:24;14.05;;;9.68;;
74469;SDS011;62918;55.706;37.816;2023-04-03T02:15:55;19.98;;;10.02;;
74469;SDS011;62918;55.706;37.816;2023-04-03T02:16:26;15.77;;;9.30;;
74469;SDS011;62918;55.706;37.816;2023-04-03T02:16:56;19.40;;;9.48;;
74469;SDS011;62918;55.706;37.816;2023-04-03T02:17:27;17.23;;;9.52;;
74469;SDS011;62918;55.706;37.816;2023-04-03T02:17:58;21.27;;;9.65;;
74469;SDS011;62918;55.706;37.816;2023-04-03T02:18:28;20.17;;;9.23;;
74469;SDS011;62918;55.706;37.816;2023-04-03T02:18:59;17.17;;;9.23;;
74469;SDS011;62918;55.706;37.816;2023-04-03T02:19:29;14.40;;;8.88;;
74469;SDS011;62918;55.706;37.816;2023-04-03T02:20:00;15.35;;;9.18;;
74469;SDS011;62918;55.706;37.816;2023-04-03T02:20:31;15.80;;;8.88;;
74469;SDS011;62918;55.706;37.816;2023-04-03T02:21:01;18.25;;;10.00;;
74469;SDS011;62918;55.706;37.816;2023-04-03T02:21:32;14.65;;;8.57;;
74469;SDS011;62918;55.706;37.816;2023-04-03T02:22:03;17.00;;;9.52;;
74469;SDS011;62918;55.706;37.816;2023-04-03T02:22:35;14.77;;;9.05;;
74469;SDS011;62918;55.706;37.816;2023-04-03T02:23:05;14.70;;;9.07;;
74469;SDS011;62918;55.706;37.816;2023-04-03T02:23:36;15.23;;;9.75;;
74469;SDS011;62918;55.706;37.816;2023-04-03T02:24:07;16.73;;;9.30;;
74469;SDS011;62918;55.706;37.816;2023-04-03T02:24:37;18.98;;;10.00;;
74469;SDS011;62918;55.706;37.816;2023-04-03T02:25:10;15.75;;;9.38;;
74469;SDS011;62918;55.706;37.816;2023-04-03T02:25:41;17.15;;;8.85;;
74469;SDS011;62918;55.706;37.816;2023-04-03T02:26:12;15.50;;;8.95;;
74469;SDS011;62918;55.706;37.816;2023-04-03T02:26:44;14.98;;;9.07;;
74469;SDS011;62918;55.706;37.816;2023-04-03T02:27:16;16.25;;;9.40;;
74469;SDS011;62918;55.706;37.816;2023-04-03T02:27:46;15.95;;;9.27;;
74469;SDS011;62918;55.706;37.816;2023-04-03T02:28:20;16.33;;;9.32;;
74469;SDS011;62918;55.706;37.816;2023-04-03T02:28:50;16.63;;;9.05;;
74469;SDS011;62918;55.706;37.816;2023-04-03T02:29:21;15.35;;;9.05;;
74469;SDS011;62918;55.706;37.816;2023-04-03T02:29:52;16.02;;;9.52;;
74469;SDS011;62918;55.706;37.816;2023-04-03T02:30:22;17.88;;;8.88;;
74469;SDS011;62918;55.706;37.816;2023-04-03T02:30:53;18.15;;;10.57;;
74469;SDS011;62918;55.706;37.816;2023-04-03T02:31:24;17.23;;;10.18;;
74469;SDS011;62918;55.706;37.816;2023-04-03T02:31:54;18.27;;;9.05;;
74469;SDS011;62918;55.706;37.816;2023-04-03T02:32:25;19.95;;;9.73;;
74469;SDS011;62918;55.706;37.816;2023-04-03T02:32:55;15.65;;;9.63;;
74469;SDS011;62918;55.706;37.816;2023-04-03T02:33:26;16.55;;;9.20;;
74469;SDS011;62918;55.706;37.816;2023-04-03T02:33:57;18.67;;;9.55;;
74469;SDS011;62918;55.706;37.816;2023-04-03T02:34:27;14.65;;;9.20;;
74469;SDS011;62918;55.706;37.816;2023-04-03T02:34:58;14.60;;;9.35;;
74469;SDS011;62918;55.706;37.816;2023-04-03T02:35:28;16.10;;;8.93;;
74469;SDS011;62918;55.706;37.816;2023-04-03T02:35:59;18.80;;;9.95;;
74469;SDS011;62918;55.706;37.816;2023-04-03T02:36:30;22.17;;;9.35;;
74469;SDS011;62918;55.706;37.816;2023-04-03T02:37:01;16.67;;;9.73;;
74469;SDS011;62918;55.706;37.816;2023-04-03T02:37:32;13.93;;;8.70;;
74469;SDS011;62918;55.706;37.816;2023-04-03T02:38:02;17.75;;;9.60;;
74469;SDS011;62918;55.706;37.816;2023-04-03T02:38:33;16.55;;;9.23;;
74469;SDS011;62918;55.706;37.816;2023-04-03T02:39:04;15.85;;;9.13;;
74469;SDS011;62918;55.706;37.816;2023-04-03T02:40:08;17.33;;;9.32;;
74469;SDS011;62918;55.706;37.816;2023-04-03T02:40:39;16.95;;;9.02;;
74469;SDS011;62918;55.706;37.816;2023-04-03T02:41:10;18.13;;;9.48;;
74469;SDS011;62918;55.706;37.816;2023-04-03T02:41:42;16.63;;;9.50;;
74469;SDS011;62918;55.706;37.816;2023-04-03T02:42:13;15.32;;;9.20;;
74469;SDS011;62918;55.706;37.816;2023-04-03T02:42:43;17.67;;;9.45;;
74469;SDS011;62918;55.706;37.816;2023-04-03T02:43:15;15.02;;;9.60;;
74469;SDS011;62918;55.706;37.816;2023-04-03T02:43:45;16.52;;;9.45;;
74469;SDS011;62918;55.706;37.816;2023-04-03T02:44:16;15.85;;;9.52;;
74469;SDS011;62918;55.706;37.816;2023-04-03T02:44:46;22.55;;;9.98;;
74469;SDS011;62918;55.706;37.816;2023-04-03T02:45:17;18.35;;;10.27;;
74469;SDS011;62918;55.706;37.816;2023-04-03T02:45:48;17.15;;;9.55;;
74469;SDS011;62918;55.706;37.816;2023-04-03T02:46:18;20.90;;;9.93;;
74469;SDS011;62918;55.706;37.816;2023-04-03T02:46:49;20.95;;;10.38;;
74469;SDS011;62918;55.706;37.816;2023-04-03T02:47:20;16.80;;;9.98;;
74469;SDS011;62918;55.706;37.816;2023-04-03T02:47:51;19.23;;;10.23;;
74469;SDS011;62918;55.706;37.816;2023-04-03T02:48:21;18.67;;;10.40;;
74469;SDS011;62918;55.706;37.816;2023-04-03T02:48:53;19.17;;;10.20;;
74469;SDS011;62918;55.706;37.816;2023-04-03T02:49:23;17.33;;;10.48;;
74469;SDS011;62918;55.706;37.816;2023-04-03T02:49:54;17.40;;;9.88;;
74469;SDS011;62918;55.706;37.816;2023-04-03T02:50:25;1.55;;;0.75;;
74469;SDS011;62918;55.706;37.816;2023-04-03T02:50:55;16.52;;;9.48;;
74469;SDS011;62918;55.706;37.816;2023-04-03T02:51:26;18.20;;;9.70;;
74469;SDS011;62918;55.706;37.816;2023-04-03T02:51:57;17.42;;;9.63;;
74469;SDS011;62918;55.706;37.816;2023-04-03T02:52:27;17.83;;;9.75;;
74469;SDS011;62918;55.706;37.816;2023-04-03T02:52:59;16.48;;;9.52;;
74469;SDS011;62918;55.706;37.816;2023-04-03T02:53:29;16.38;;;9.65;;
74469;SDS011;62918;55.706;37.816;2023-04-03T02:54:00;19.88;;;9.88;;
74469;SDS011;62918;55.706;37.816;2023-04-03T02:54:30;17.00;;;10.02;;
74469;SDS011;62918;55.706;37.816;2023-04-03T02:55:01;20.40;;;10.00;;
74469;SDS011;62918;55.706;37.816;2023-04-03T02:55:33;21.77;;;10.65;;
74469;SDS011;62918;55.706;37.816;2023-04-03T02:56:04;21.08;;;9.77;;
74469;SDS011;62918;55.706;37.816;2023-04-03T02:56:35;19.90;;;9.88;;
74469;SDS011;62918;55.706;37.816;2023-04-03T02:57:05;18.95;;;10.30;;
74469;SDS011;62918;55.706;37.816;2023-04-03T02:57:38;22.75;;;10.57;;
74469;SDS011;62918;55.706;37.816;2023-04-03T02:58:09;23.63;;;10.75;;
74469;SDS011;62918;55.706;37.816;2023-04-03T02:58:40;18.33;;;10.45;;
74469;SDS011;62918;55.706;37.816;2023-04-03T02:59:10;19.13;;;10.13;;
74469;SDS011;62918;55.706;37.816;2023-04-03T02:59:41;20.73;;;10.40;;
74469;SDS011;62918;55.706;37.816;2023-04-03T03:00:12;20.00;;;10.00;;
74469;SDS011;62918;55.706;37.816;2023-04-03T03:00:43;23.05;;;11.18;;
74469;SDS011;62918;55.706;37.816;2023-04-03T03:01:13;21.75;;;11.20;;
74469;SDS011;62918;55.706;37.816;2023-04-03T03:01:44;24.17;;;10.60;;
74469;SDS011;62918;55.706;37.816;2023-04-03T03:02:15;24.17;;;11.50;;
74469;SDS011;62918;55.706;37.816;2023-04-03T03:02:45;20.17;;;10.23;;
74469;SDS011;62918;55.706;37.816;2023-04-03T03:03:16;18.05;;;10.18;;
74469;SDS011;62918;55.706;37.816;2023-04-03T03:03:47;18.17;;;10.52;;
74469;SDS011;62918;55.706;37.816;2023-04-03T03:04:17;16.70;;;10.00;;
74469;SDS011;62918;55.706;37.816;2023-04-03T03:04:48;22.25;;;10.35;;
74469;SDS011;62918;55.706;37.816;2023-04-03T03:05:19;24.45;;;10.73;;
74469;SDS011;62918;55.706;37.816;2023-04-03T03:05:49;19.25;;;10.50;;
74469;SDS011;62918;55.706;37.816;2023-04-03T03:06:20;22.88;;;11.05;;
74469;SDS011;62918;55.706;37.816;2023-04-03T03:06:50;19.13;;;10.93;;
74469;SDS011;62918;55.706;37.816;2023-04-03T03:07:22;20.35;;;11.35;;
74469;SDS011;62918;55.706;37.816;2023-04-03T03:07:53;20.58;;;10.23;;
74469;SDS011;62918;55.706;37.816;2023-04-03T03:08:23;23.02;;;10.68;;
74469;SDS011;62918;55.706;37.816;2023-04-03T03:08:57;29.42;;;11.43;;
74469;SDS011;62918;55.706;37.816;2023-04-03T03:09:28;20.10;;;10.43;;
74469;SDS011;62918;55.706;37.816;2023-04-03T03:09:59;19.52;;;10.75;;
74469;SDS011;62918;55.706;37.816;2023-04-03T03:10:30;24.42;;;11.68;;
74469;SDS011;62918;55.706;37.816;2023-04-03T03:11:01;22.38;;;11.13;;
74469;SDS011;62918;55.706;37.816;2023-04-03T03:11:32;27.52;;;11.88;;
74469;SDS011;62918;55.706;37.816;2023-04-03T03:12:02;18.90;;;11.23;;
74469;SDS011;62918;55.706;37.816;2023-04-03T03:12:33;23.88;;;11.45;;